| Date | Time | Temp. (oF) | Dew Point (oF) | Rel. Hum. (%) | Press. (in.) | Wind Dir. | Wind Speed (mph) | Hourly Rainfall (in.) |
|
|---|---|---|---|---|---|---|---|---|---|
| 1 | 06/04 | 00:00 | 60 | 50 | 70 | 29.90 | W | 4 | 0.00 |
| 2 | 06/03 | 23:00 | 61 | 50 | 68 | 29.89 | SW | 3 | 0.00 |
| 3 | 06/03 | 22:00 | 62 | 50 | 66 | 29.89 | SSW | 4 | 0.00 |
| 4 | 06/03 | 21:00 | 63 | 49 | 61 | 29.86 | S | 4 | 0.00 |
| 5 | 06/03 | 20:00 | 64 | 47 | 56 | 29.84 | W | 7 | 0.00 |
| 6 | 06/03 | 19:00 | 66 | 47 | 52 | 29.81 | WSW | 8 | 0.00 |
| 7 | 06/03 | 18:00 | 68 | 49 | 51 | 29.77 | SSW | 5 | 0.00 |
| 8 | 06/03 | 17:00 | 68 | 49 | 52 | 29.78 | SSW | 8 | 0.00 |
| 9 | 06/03 | 16:00 | 68 | 50 | 54 | 29.76 | WSW | 19 | 0.00 |
| 10 | 06/03 | 15:00 | 65 | 52 | 63 | 29.76 | SW | 4 | 0.00 |
| 11 | 06/03 | 14:00 | 67 | 53 | 63 | 29.72 | W | 2 | 0.00 |
| 12 | 06/03 | 13:00 | 70 | 51 | 53 | 29.71 | SW | 10 | 0.00 |
| 13 | 06/03 | 12:00 | 72 | 53 | 53 | 29.70 | WNW | 12 | 0.00 |
| 14 | 06/03 | 11:00 | 69 | 54 | 60 | 29.70 | W | 13 | 0.00 |
| 15 | 06/03 | 10:00 | 67 | 54 | 65 | 29.70 | NW | 4 | 0.00 |
| 16 | 06/03 | 09:00 | 64 | 57 | 80 | 29.70 | WSW | 3 | 0.00 |
| 17 | 06/03 | 08:00 | 64 | 59 | 84 | 29.69 | NW | 7 | 0.00 |
| 18 | 06/03 | 07:00 | 63 | 60 | 90 | 29.67 | W | 2 | 0.00 |
| 19 | 06/03 | 06:00 | 62 | 60 | 94 | 29.64 | W | 2 | 0.00 |
| 20 | 06/03 | 05:00 | 64 | 62 | 94 | 29.61 | SW | 2 | 0.00 |
| 21 | 06/03 | 04:00 | 64 | 62 | 96 | 29.62 | S | 3 | 0.00 |
| 22 | 06/03 | 03:00 | 65 | 62 | 93 | 29.61 | NNW | 1 | 0.00 |
| 23 | 06/03 | 02:00 | 65 | 62 | 91 | 29.62 | SSW | 1 | 0.00 |
| 24 | 06/03 | 01:00 | 65 | 61 | 87 | 29.63 | SSE | 6 | 0.00 |